Time;durP1;ratioP1;P1;durP2;ratioP2;P2;SDS_P1;SDS_P2;PMS_P1;PMS_P2;Temp;Humidity;BMP_temperature;BMP_pressure;BME280_temperature;BME280_humidity;BME280_pressure;Samples;Min_cycle;Max_cycle;Signal;HPM_P1;HPM_P2
2023/04/24 00:01:48;;;;;;;2.25;1.45;;;;;;;21.58;39.85;99752.59;5104847;27;20057;-72
2023/04/24 00:04:16;;;;;;;2.65;1.52;;;;;;;21.61;39.93;99741.53;5107281;27;20047;-72
2023/04/24 00:06:42;;;;;;;1.23;1.13;;;;;;;21.63;40.10;99739.50;5094880;28;20044;-71
2023/04/24 00:09:11;;;;;;;2.20;1.50;;;;;;;21.57;39.89;99743.00;5112154;27;20385;-72
2023/04/24 00:11:36;;;;;;;2.00;1.50;;;;;;;21.54;40.07;99739.97;5108406;28;20165;-72
2023/04/24 00:14:02;;;;;;;1.85;1.42;;;;;;;21.57;40.01;99734.25;5104392;27;20187;-71
2023/04/24 00:16:28;;;;;;;1.77;1.55;;;;;;;21.56;40.00;99733.44;5103981;28;20150;-72
2023/04/24 00:18:54;;;;;;;2.00;1.30;;;;;;;21.58;39.78;99728.75;5115193;27;20046;-73
2023/04/24 00:21:20;;;;;;;4.35;1.77;;;;;;;21.52;40.17;99721.66;5111519;27;20040;-71
2023/04/24 00:23:46;;;;;;;1.60;1.13;;;;;;;21.60;39.63;99728.53;5110025;27;20087;-72
2023/04/24 00:26:11;;;;;;;1.50;1.38;;;;;;;21.54;39.87;99718.78;5109711;27;20555;-72
2023/04/24 00:28:37;;;;;;;1.50;1.30;;;;;;;21.53;40.11;99725.09;5108518;27;20039;-72
2023/04/24 00:31:03;;;;;;;1.30;1.20;;;;;;;21.59;40.16;99725.06;5104025;28;20044;-71
2023/04/24 00:33:28;;;;;;;1.35;1.23;;;;;;;21.55;40.10;99726.53;5093910;28;20073;-72
2023/04/24 00:35:54;;;;;;;2.33;1.60;;;;;;;21.60;39.99;99725.88;5106691;27;20031;-72
2023/04/24 00:38:19;;;;;;;1.45;1.13;;;;;;;21.56;39.88;99724.69;5085327;28;20040;-72
2023/04/24 00:40:47;;;;;;;1.55;1.30;;;;;;;21.59;39.98;99725.06;5102342;28;20036;-72
2023/04/24 00:43:12;;;;;;;1.45;1.30;;;;;;;21.56;39.80;99714.91;5103966;27;20035;-72
2023/04/24 00:45:38;;;;;;;2.47;1.45;;;;;;;21.56;39.83;99714.09;5106152;27;20051;-72
2023/04/24 00:48:04;;;;;;;1.20;1.10;;;;;;;21.53;40.17;99711.84;5106578;27;20075;-72
2023/04/24 00:50:30;;;;;;;1.85;1.45;;;;;;;21.61;39.98;99712.41;5106508;27;20046;-71
2023/04/24 00:52:56;;;;;;;1.70;1.20;;;;;;;21.52;39.95;99716.34;5104054;28;20089;-72
2023/04/24 00:55:21;;;;;;;1.85;1.20;;;;;;;21.47;39.91;99702.13;5089897;28;20035;-72
2023/04/24 00:57:48;;;;;;;2.30;1.48;;;;;;;21.62;39.70;99713.22;5108815;28;20075;-72
2023/04/24 01:00:14;;;;;;;1.17;1.08;;;;;;;21.57;39.77;99705.94;5121300;27;20062;-72
2023/04/24 01:02:44;;;;;;;1.77;1.20;;;;;;;21.53;39.76;99710.03;5111884;27;20031;-72
2023/04/24 01:05:12;;;;;;;1.83;1.20;;;;;;;21.57;39.71;99713.88;5089895;28;20073;-72
2023/04/24 01:07:39;;;;;;;1.25;1.15;;;;;;;21.56;39.80;99706.97;5103947;27;20066;-72
2023/04/24 01:10:06;;;;;;;1.23;1.13;;;;;;;21.45;39.65;99699.72;5112520;28;20059;-72
2023/04/24 01:12:32;;;;;;;3.20;1.10;;;;;;;21.54;39.58;99711.63;5107457;28;20043;-72
2023/04/24 01:14:58;;;;;;;1.50;1.30;;;;;;;21.50;39.84;99712.28;5105600;27;20038;-72
2023/04/24 01:17:23;;;;;;;1.20;1.08;;;;;;;21.47;40.05;99700.31;5107431;28;20047;-72
2023/04/24 01:19:49;;;;;;;1.40;1.10;;;;;;;21.51;39.89;99700.66;5110510;27;20522;-72
2023/04/24 01:22:16;;;;;;;1.27;1.15;;;;;;;21.56;39.79;99712.25;5084823;28;20043;-72
2023/04/24 01:24:42;;;;;;;1.88;1.25;;;;;;;21.52;40.02;99703.09;5102297;27;20461;-72
2023/04/24 01:27:09;;;;;;;1.38;0.90;;;;;;;21.40;40.08;99681.84;5085080;28;20468;-72
2023/04/24 01:29:35;;;;;;;1.23;1.13;;;;;;;21.60;39.62;99702.84;5087817;28;20047;-72
2023/04/24 01:32:02;;;;;;;1.25;1.15;;;;;;;21.54;39.72;99698.41;5088236;28;20039;-72
2023/04/24 01:34:28;;;;;;;1.05;0.95;;;;;;;21.48;40.01;99709.88;5107716;27;21086;-72
2023/04/24 01:36:53;;;;;;;0.77;0.77;;;;;;;21.45;40.07;99699.72;5109250;27;20048;-72
2023/04/24 01:39:20;;;;;;;1.10;1.00;;;;;;;21.55;39.69;99709.81;5089978;28;20054;-72
2023/04/24 01:41:46;;;;;;;1.20;1.10;;;;;;;21.52;39.80;99711.03;5102350;28;20043;-72
2023/04/24 01:44:12;;;;;;;1.90;1.20;;;;;;;21.41;39.81;99704.63;5072603;28;20657;-72
2023/04/24 01:46:37;;;;;;;1.42;1.02;;;;;;;21.42;39.70;99692.22;5108258;28;20036;-72
2023/04/24 01:49:03;;;;;;;1.00;1.00;;;;;;;21.53;39.97;99711.84;5086483;27;20044;-72
2023/04/24 01:51:29;;;;;;;1.67;0.90;;;;;;;21.47;40.01;99708.25;5104541;27;20028;-72
2023/04/24 01:53:56;;;;;;;0.75;0.70;;;;;;;21.48;40.04;99706.41;5104797;28;20039;-72
2023/04/24 01:56:21;;;;;;;1.33;1.00;;;;;;;21.46;39.99;99708.47;5107051;27;20035;-72
2023/04/24 01:58:49;;;;;;;1.13;1.00;;;;;;;21.47;39.75;99705.59;5086251;28;20039;-72
2023/04/24 02:01:20;;;;;;;2.20;1.10;;;;;;;21.49;39.70;99702.72;5100834;28;20043;-71
2023/04/24 02:03:47;;;;;;;1.30;1.20;;;;;;;21.50;39.75;99699.88;5103746;28;20032;-72
2023/04/24 02:06:12;;;;;;;1.52;1.02;;;;;;;21.48;39.58;99699.28;5107652;28;20036;-72
2023/04/24 02:08:38;;;;;;;0.73;0.70;;;;;;;21.52;39.79;99699.66;5104932;27;20052;-72
2023/04/24 02:11:03;;;;;;;1.17;1.00;;;;;;;21.45;39.79;99702.38;5103852;28;20051;-72
2023/04/24 02:13:30;;;;;;;1.20;1.00;;;;;;;21.51;39.91;99708.63;5099970;28;20065;-72
2023/04/24 02:15:57;;;;;;;0.45;0.45;;;;;;;21.50;39.95;99699.88;5091171;28;20059;-72
2023/04/24 02:18:23;;;;;;;1.05;0.98;;;;;;;21.43;39.97;99701.78;5104022;27;20046;-72
2023/04/24 02:20:50;;;;;;;1.45;1.00;;;;;;;21.38;39.98;99704.28;5108255;28;20035;-72
2023/04/24 02:23:15;;;;;;;0.60;0.60;;;;;;;21.44;40.09;99703.38;5100496;27;20042;-72
2023/04/24 02:25:41;;;;;;;1.08;0.90;;;;;;;21.42;39.75;99695.66;5085834;28;20036;-72
2023/04/24 02:28:06;;;;;;;0.80;0.80;;;;;;;21.44;39.80;99710.53;5098642;28;20040;-72
2023/04/24 02:30:33;;;;;;;0.73;0.73;;;;;;;21.40;39.98;99702.22;5104486;28;20651;-72
2023/04/24 02:32:58;;;;;;;0.63;0.63;;;;;;;21.42;40.04;99706.25;5106380;28;20043;-72
2023/04/24 02:35:24;;;;;;;1.67;1.10;;;;;;;21.46;40.07;99706.63;5100605;28;20039;-72
2023/04/24 02:37:49;;;;;;;1.27;0.85;;;;;;;21.46;39.93;99708.47;5106092;28;20040;-72
2023/04/24 02:40:15;;;;;;;1.70;0.75;;;;;;;21.40;40.16;99703.03;5096102;28;20035;-72
2023/04/24 02:42:40;;;;;;;0.63;0.63;;;;;;;21.49;39.95;99708.03;5101443;28;20510;-72
2023/04/24 02:45:07;;;;;;;1.92;1.08;;;;;;;21.45;39.63;99705.00;5105144;28;20047;-72
2023/04/24 02:47:32;;;;;;;1.08;0.85;;;;;;;21.47;39.89;99710.91;5103166;28;20250;-72
2023/04/24 02:49:59;;;;;;;0.52;0.52;;;;;;;21.40;39.98;99708.31;5087356;28;20032;-72
2023/04/24 02:52:24;;;;;;;1.13;0.80;;;;;;;21.37;40.00;99706.09;5101246;28;20036;-72
2023/04/24 02:54:50;;;;;;;0.60;0.60;;;;;;;21.42;40.01;99702.81;5099699;28;20547;-71
2023/04/24 02:57:16;;;;;;;0.70;0.70;;;;;;;21.41;39.87;99702.00;5087317;28;20042;-72
2023/04/24 02:59:42;;;;;;;0.77;0.77;;;;;;;21.42;39.91;99711.56;5090973;28;20035;-72
2023/04/24 03:02:07;;;;;;;0.70;0.70;;;;;;;21.31;40.04;99698.19;5093650;28;20151;-72
2023/04/24 03:04:33;;;;;;;1.13;1.00;;;;;;;21.38;39.95;99709.56;5089364;28;20469;-72
2023/04/24 03:06:58;;;;;;;0.73;0.70;;;;;;;21.38;40.05;99709.56;5103647;28;20040;-72
2023/04/24 03:09:24;;;;;;;0.70;0.70;;;;;;;21.42;39.78;99710.75;5107046;28;20035;-72
2023/04/24 03:11:50;;;;;;;0.70;0.70;;;;;;;21.41;40.11;99717.88;5091771;28;20508;-72
2023/04/24 03:14:16;;;;;;;1.13;0.95;;;;;;;21.35;39.81;99708.13;5090324;28;20027;-72
2023/04/24 03:16:41;;;;;;;0.65;0.63;;;;;;;21.35;39.81;99713.44;5106520;27;20039;-72
2023/04/24 03:19:07;;;;;;;1.10;1.00;;;;;;;21.38;40.10;99718.31;5107680;27;20043;-72
2023/04/24 03:21:40;;;;;;;0.65;0.60;;;;;;;21.41;39.65;99719.72;5091420;27;20039;-72
2023/04/24 03:24:09;;;;;;;0.82;0.77;;;;;;;21.35;39.98;99718.72;5091134;28;20036;-72
2023/04/24 03:26:36;;;;;;;0.73;0.73;;;;;;;21.31;40.01;99728.13;5094260;28;20628;-72
2023/04/24 03:29:15;;;;;;;0.55;0.52;;;;;;;21.38;40.05;99722.81;5092490;28;20035;-72
2023/04/24 03:31:41;;;;;;;0.85;0.57;;;;;;;21.38;39.94;99723.63;5097975;28;20799;-72
2023/04/24 03:34:07;;;;;;;0.98;0.80;;;;;;;21.38;40.04;99720.16;5108283;28;20035;-73
2023/04/24 03:36:33;;;;;;;0.45;0.45;;;;;;;21.44;39.64;99723.78;5107780;27;20028;-72
2023/04/24 03:38:58;;;;;;;0.70;0.70;;;;;;;21.42;40.27;99718.69;5094723;27;20047;-72
2023/04/24 03:41:28;;;;;;;1.25;0.75;;;;;;;21.39;40.01;99719.13;5085505;28;20059;-72
2023/04/24 03:44:01;;;;;;;0.90;0.55;;;;;;;21.42;39.81;99714.19;5127704;27;20031;-71
2023/04/24 03:46:26;;;;;;;0.65;0.65;;;;;;;21.41;40.09;99714.44;5108473;28;20040;-72
2023/04/24 03:48:58;;;;;;;0.52;0.52;;;;;;;21.38;40.04;99723.63;5112975;27;20163;-72
2023/04/24 03:51:30;;;;;;;0.70;0.68;;;;;;;21.42;39.72;99724.78;5097597;28;20060;-72
2023/04/24 03:54:01;;;;;;;0.40;0.40;;;;;;;21.41;39.75;99725.00;5093437;28;20070;-72
2023/04/24 03:56:29;;;;;;;0.80;0.63;;;;;;;21.33;39.79;99725.28;5106671;27;20156;-72
2023/04/24 03:58:55;;;;;;;0.50;0.50;;;;;;;21.34;39.88;99730.34;5107229;28;20105;-72
2023/04/24 04:01:21;;;;;;;1.10;0.60;;;;;;;21.38;39.71;99723.63;5104620;27;20031;-72
2023/04/24 04:03:53;;;;;;;0.60;0.60;;;;;;;21.38;39.90;99725.44;5104557;27;20197;-72
2023/04/24 04:06:22;;;;;;;0.52;0.52;;;;;;;21.31;40.09;99722.84;5094645;27;20044;-72
2023/04/24 04:08:48;;;;;;;1.20;0.77;;;;;;;21.37;39.84;99726.47;5088648;28;20102;-72
2023/04/24 04:11:14;;;;;;;1.80;1.40;;;;;;;21.32;40.07;99732.41;5108647;27;20170;-72
2023/04/24 04:13:39;;;;;;;0.73;0.73;;;;;;;21.26;39.95;99735.13;5106736;28;20058;-72
2023/04/24 04:16:05;;;;;;;0.35;0.35;;;;;;;21.30;40.03;99737.09;5105964;28;20028;-72
2023/04/24 04:18:31;;;;;;;0.95;0.65;;;;;;;21.29;40.08;99740.78;5092558;28;20773;-72
2023/04/24 04:20:57;;;;;;;0.63;0.40;;;;;;;21.31;40.11;99740.56;5114114;27;20510;-72
2023/04/24 04:23:23;;;;;;;0.88;0.70;;;;;;;21.30;39.66;99745.06;5108574;27;20032;-72
2023/04/24 04:26:07;;;;;;;0.63;0.63;;;;;;;21.32;39.83;99742.19;5092468;27;21557;-73
2023/04/24 04:28:52;;;;;;;0.75;0.63;;;;;;;21.31;39.85;99741.38;5098705;28;20058;-73
2023/04/24 04:31:20;;;;;;;0.60;0.60;;;;;;;21.40;39.89;99744.59;5109617;28;20040;-71
2023/04/24 04:33:46;;;;;;;0.63;0.63;;;;;;;21.34;39.67;99746.25;5092341;28;20046;-72
2023/04/24 04:36:12;;;;;;;0.60;0.60;;;;;;;21.30;40.11;99742.41;5089226;28;20031;-72
2023/04/24 04:38:44;;;;;;;0.65;0.52;;;;;;;21.31;39.79;99741.38;5084565;28;20028;-72
2023/04/24 04:41:23;;;;;;;0.60;0.60;;;;;;;21.34;39.98;99751.53;5088364;28;20398;-72
2023/04/24 04:43:49;;;;;;;0.75;0.50;;;;;;;21.33;39.90;99759.69;5124198;27;20058;-72
2023/04/24 04:46:16;;;;;;;0.43;0.40;;;;;;;21.30;39.70;99760.94;5122913;27;20036;-72
2023/04/24 04:49:02;;;;;;;0.45;0.43;;;;;;;21.35;39.84;99762.94;5101767;28;20056;-72
2023/04/24 04:51:29;;;;;;;0.50;0.50;;;;;;;21.27;40.02;99763.22;5091053;28;20044;-72
2023/04/24 04:53:54;;;;;;;0.73;0.52;;;;;;;21.33;39.96;99768.44;5105491;27;20130;-72
2023/04/24 04:56:21;;;;;;;0.45;0.45;;;;;;;21.31;39.91;99777.63;5108120;28;20081;-72
2023/04/24 04:58:47;;;;;;;0.40;0.40;;;;;;;21.30;39.85;99773.38;5120016;27;20754;-72
2023/04/24 05:01:15;;;;;;;0.50;0.50;;;;;;;21.30;40.02;99776.81;5106168;27;20088;-72
2023/04/24 05:03:44;;;;;;;0.45;0.45;;;;;;;21.26;40.05;99778.28;5106134;27;20035;-72
2023/04/24 05:06:13;;;;;;;0.90;0.68;;;;;;;21.29;40.04;99782.34;5092027;27;20036;-72
2023/04/24 05:08:39;;;;;;;0.50;0.50;;;;;;;21.21;39.91;99777.28;5106331;27;20031;-72
2023/04/24 05:11:08;;;;;;;0.53;0.53;;;;;;;21.23;39.84;99783.97;5092897;28;20047;-72
2023/04/24 05:13:33;;;;;;;0.30;0.30;;;;;;;21.25;40.09;99783.81;5091659;28;20061;-72
2023/04/24 05:16:00;;;;;;;0.57;0.57;;;;;;;21.21;39.98;99793.16;5087125;27;20500;-72
2023/04/24 05:18:27;;;;;;;0.50;0.50;;;;;;;21.24;39.87;99796.22;5097236;28;20099;-72
2023/04/24 05:20:53;;;;;;;0.68;0.65;;;;;;;21.22;39.86;99797.44;5089147;28;20047;-73
2023/04/24 05:23:19;;;;;;;0.50;0.50;;;;;;;21.23;40.05;99804.34;5089323;28;20036;-72
2023/04/24 05:25:48;;;;;;;0.50;0.50;;;;;;;21.16;39.78;99788.50;5102224;27;20040;-72
2023/04/24 05:28:15;;;;;;;1.65;0.80;;;;;;;21.10;40.22;99794.66;5105723;28;20036;-72
2023/04/24 05:30:42;;;;;;;0.50;0.50;;;;;;;21.26;39.74;99812.72;5100083;28;20040;-72
2023/04/24 05:33:09;;;;;;;0.50;0.40;;;;;;;21.23;40.01;99820.25;5095436;28;20090;-72
2023/04/24 05:35:35;;;;;;;0.95;0.32;;;;;;;21.26;39.97;99812.72;5103333;27;20040;-72
2023/04/24 05:38:01;;;;;;;0.30;0.30;;;;;;;21.22;39.91;99816.78;5089437;28;20040;-72
2023/04/24 05:40:26;;;;;;;0.50;0.50;;;;;;;21.25;39.71;99819.03;5110904;27;20473;-72
2023/04/24 05:42:52;;;;;;;0.40;0.40;;;;;;;21.24;39.73;99835.09;5109957;27;20039;-72
2023/04/24 05:45:18;;;;;;;0.40;0.40;;;;;;;21.26;40.04;99833.09;5109773;27;20043;-72
2023/04/24 05:47:44;;;;;;;0.25;0.25;;;;;;;21.20;40.04;99829.44;5103742;28;20435;-72
2023/04/24 05:50:11;;;;;;;0.43;0.43;;;;;;;21.18;39.95;99836.75;5092507;28;20123;-71
2023/04/24 05:52:37;;;;;;;1.17;0.43;;;;;;;21.20;39.78;99833.91;5085093;27;20051;-72
2023/04/24 05:55:08;;;;;;;0.45;0.45;;;;;;;21.12;39.98;99838.41;5101859;27;20035;-72
2023/04/24 05:57:37;;;;;;;0.77;0.50;;;;;;;21.23;40.09;99833.47;5093829;28;20465;-72
2023/04/24 06:00:04;;;;;;;0.90;0.65;;;;;;;21.16;39.74;99838.78;5104835;28;20066;-72
2023/04/24 06:02:39;;;;;;;0.50;0.50;;;;;;;21.17;39.92;99842.25;5108153;27;20197;-73
2023/04/24 06:05:05;;;;;;;0.57;0.52;;;;;;;21.18;39.85;99841.22;5102054;28;20027;-72
2023/04/24 06:07:31;;;;;;;0.32;0.32;;;;;;;21.21;39.97;99852.22;5106522;27;20526;-72
2023/04/24 06:09:57;;;;;;;0.30;0.30;;;;;;;21.12;40.11;99846.34;5086558;28;20040;-72
2023/04/24 06:12:24;;;;;;;0.40;0.40;;;;;;;21.18;39.86;99852.63;5084729;28;20050;-72
2023/04/24 06:15:00;;;;;;;0.32;0.32;;;;;;;21.22;39.89;99850.38;5088973;28;20104;-72
2023/04/24 06:17:41;;;;;;;0.38;0.38;;;;;;;21.15;40.02;99849.59;5091367;28;20077;-72
2023/04/24 06:20:07;;;;;;;0.40;0.40;;;;;;;21.15;40.18;99858.34;5098398;27;20031;-72
2023/04/24 06:22:33;;;;;;;0.15;0.15;;;;;;;21.12;39.98;99853.47;5094088;28;20074;-72
2023/04/24 06:25:00;;;;;;;1.13;0.50;;;;;;;21.15;40.08;99868.94;5104695;28;20042;-72
2023/04/24 06:27:25;;;;;;;0.38;0.38;;;;;;;21.16;40.15;99869.75;5087746;28;20386;-72
2023/04/24 06:29:54;;;;;;;1.52;0.55;;;;;;;21.24;39.78;99877.47;5103497;28;20032;-72
2023/04/24 06:32:23;;;;;;;0.30;0.30;;;;;;;21.14;39.95;99867.31;5091411;28;20142;-72
2023/04/24 06:34:50;;;;;;;0.28;0.20;;;;;;;21.13;40.03;99870.97;5123905;27;20095;-72
2023/04/24 06:37:16;;;;;;;0.47;0.47;;;;;;;21.18;39.81;99873.00;5103783;28;20035;-72
2023/04/24 06:39:41;;;;;;;0.40;0.40;;;;;;;21.11;39.98;99875.69;5107620;28;20035;-72
2023/04/24 06:42:09;;;;;;;0.40;0.32;;;;;;;21.14;40.02;99875.25;5104865;27;20035;-72
2023/04/24 06:44:40;;;;;;;0.40;0.40;;;;;;;21.12;39.96;99879.94;5101951;28;20043;-72
2023/04/24 06:47:09;;;;;;;0.20;0.20;;;;;;;21.17;40.17;99884.59;5106795;28;20056;-72
2023/04/24 06:49:37;;;;;;;0.32;0.17;;;;;;;21.21;39.93;99889.28;5112548;27;20050;-73
2023/04/24 06:52:03;;;;;;;0.20;0.20;;;;;;;21.22;39.91;99884.81;5110026;27;20050;-71
2023/04/24 06:54:30;;;;;;;0.22;0.22;;;;;;;21.24;39.83;99894.19;5113193;28;20062;-73
2023/04/24 06:56:57;;;;;;;0.65;0.40;;;;;;;21.28;39.85;99890.09;5094919;28;20082;-72
2023/04/24 06:59:24;;;;;;;0.17;0.17;;;;;;;21.22;39.93;99898.06;5113457;27;20690;-73
2023/04/24 07:01:50;;;;;;;0.40;0.40;;;;;;;21.24;39.69;99896.84;5112794;27;20048;-74
2023/04/24 07:04:16;;;;;;;0.45;0.45;;;;;;;21.24;39.67;99899.50;5095543;27;20039;-74
2023/04/24 07:06:43;;;;;;;0.75;0.28;;;;;;;21.27;39.63;99898.25;5111955;27;20051;-74
2023/04/24 07:09:09;;;;;;;0.47;0.43;;;;;;;21.27;39.93;99906.19;5093750;28;20040;-74
2023/04/24 07:11:36;;;;;;;0.30;0.30;;;;;;;21.31;39.63;99900.25;5110831;27;20047;-74
2023/04/24 07:14:02;;;;;;;0.73;0.52;;;;;;;21.27;39.61;99911.50;5112540;28;20401;-74
2023/04/24 07:16:28;;;;;;;0.47;0.35;;;;;;;21.20;39.83;99892.97;5113908;27;20035;-74
2023/04/24 07:18:53;;;;;;;0.28;0.20;;;;;;;21.35;39.68;99911.22;5114459;27;20498;-73
2023/04/24 07:21:19;;;;;;;0.35;0.35;;;;;;;21.28;39.59;99907.81;5111484;27;20043;-74
2023/04/24 07:23:44;;;;;;;0.65;0.52;;;;;;;21.22;40.33;99914.75;5108871;27;20035;-69
2023/04/24 07:26:10;;;;;;;1.75;0.63;;;;;;;21.10;41.51;99922.53;5110012;27;20047;-68
2023/04/24 07:28:35;;;;;;;0.60;0.50;;;;;;;21.06;41.88;99928.44;5110877;27;20052;-68
2023/04/24 07:31:01;;;;;;;4.25;1.15;;;;;;;21.16;41.60;99928.00;5110553;27;20062;-69
2023/04/24 07:33:26;;;;;;;0.95;0.80;;;;;;;21.10;41.41;99933.13;5106272;27;20032;-68
2023/04/24 07:35:52;;;;;;;1.73;1.27;;;;;;;21.16;41.47;99935.94;5108836;27;20067;-69
2023/04/24 07:38:21;;;;;;;1.25;0.90;;;;;;;21.17;41.59;99943.66;5110704;27;20047;-68
2023/04/24 07:40:46;;;;;;;0.95;0.65;;;;;;;21.15;41.81;99945.72;5110511;27;20519;-70
2023/04/24 07:43:12;;;;;;;2.15;1.10;;;;;;;21.13;42.18;99951.22;5110680;27;20059;-70
2023/04/24 07:45:39;;;;;;;1.50;0.70;;;;;;;21.08;42.01;99955.53;5110680;27;20074;-70
2023/04/24 07:48:05;;;;;;;0.88;0.80;;;;;;;21.06;41.57;99961.03;5111401;27;20167;-70
2023/04/24 07:50:31;;;;;;;0.70;0.70;;;;;;;21.02;41.61;99967.75;5109011;27;20202;-70
2023/04/24 07:52:56;;;;;;;3.58;0.98;;;;;;;21.03;41.75;99960.63;5107430;27;20045;-70
2023/04/24 07:55:22;;;;;;;1.33;0.88;;;;;;;21.04;41.55;99967.56;5107424;27;20035;-70
2023/04/24 07:57:47;;;;;;;0.90;0.85;;;;;;;21.06;41.37;99974.25;5113933;27;20028;-69
2023/04/24 08:00:13;;;;;;;0.50;0.50;;;;;;;21.10;41.24;99980.75;5106199;27;20047;-70
2023/04/24 08:02:39;;;;;;;0.73;0.70;;;;;;;21.03;41.35;99979.97;5108236;27;20103;-70
2023/04/24 08:05:05;;;;;;;1.55;0.80;;;;;;;20.98;41.44;99979.75;5107056;27;20111;-70
2023/04/24 08:07:31;;;;;;;6.13;1.08;;;;;;;21.01;41.41;99992.59;5109701;27;20063;-71
2023/04/24 08:09:56;;;;;;;0.90;0.70;;;;;;;20.95;41.41;99990.78;5102851;27;20520;-71
2023/04/24 08:12:22;;;;;;;2.20;0.90;;;;;;;20.86;41.40;99977.97;5108152;27;20040;-70
2023/04/24 08:14:47;;;;;;;1.02;0.93;;;;;;;21.04;41.23;100009.91;5109119;27;20088;-70
2023/04/24 08:17:13;;;;;;;1.92;0.75;;;;;;;21.01;41.29;100010.31;5108316;27;20039;-70
2023/04/24 08:19:44;;;;;;;1.50;1.15;;;;;;;21.03;41.30;100022.34;5106462;27;20797;-71
2023/04/24 08:22:09;;;;;;;2.13;0.85;;;;;;;20.94;41.38;100025.38;5111946;27;20043;-70
2023/04/24 08:24:36;;;;;;;1.45;0.77;;;;;;;21.02;41.18;100033.94;5115959;27;20077;-71
2023/04/24 08:27:02;;;;;;;3.72;1.40;;;;;;;20.92;41.01;100041.47;5111176;27;20074;-70
2023/04/24 08:29:27;;;;;;;1.48;0.88;;;;;;;20.93;41.04;100037.00;5113758;27;20032;-70
2023/04/24 08:31:54;;;;;;;2.30;1.17;;;;;;;20.93;41.06;100043.09;5117592;27;20043;-69
2023/04/24 08:34:20;;;;;;;2.03;0.77;;;;;;;21.06;41.22;100042.28;5104861;27;20031;-71
2023/04/24 08:36:46;;;;;;;1.33;1.00;;;;;;;21.13;40.91;100038.59;5105781;28;20050;-72
2023/04/24 08:39:11;;;;;;;0.95;0.90;;;;;;;21.16;40.61;100055.88;5107229;27;20036;-71
2023/04/24 08:41:37;;;;;;;2.72;1.23;;;;;;;21.10;40.65;100059.38;5108890;27;20126;-72
2023/04/24 08:44:04;;;;;;;1.70;1.20;;;;;;;21.12;40.80;100065.25;5109063;27;20085;-73
2023/04/24 08:46:30;;;;;;;1.38;1.13;;;;;;;21.20;40.53;100069.53;5109782;27;20052;-72
2023/04/24 08:48:56;;;;;;;8.48;1.25;;;;;;;21.15;40.59;100074.63;5110960;27;20051;-71
2023/04/24 08:51:23;;;;;;;1.83;1.15;;;;;;;21.17;40.67;100078.69;5109408;27;20042;-72
2023/04/24 08:53:50;;;;;;;2.28;0.93;;;;;;;21.17;40.50;100078.69;5104234;27;20040;-72
2023/04/24 08:56:17;;;;;;;1.85;1.13;;;;;;;21.25;40.24;100088.28;5112427;27;20110;-72
2023/04/24 08:58:43;;;;;;;1.75;1.00;;;;;;;21.16;40.23;100090.31;5109522;27;20185;-72
2023/04/24 09:01:09;;;;;;;1.55;1.25;;;;;;;21.24;40.15;100098.06;5108576;27;20035;-72
2023/04/24 09:03:35;;;;;;;1.20;1.10;;;;;;;21.21;40.24;100098.47;5103801;27;20032;-72
2023/04/24 09:06:02;;;;;;;1.95;1.10;;;;;;;21.20;40.32;100104.78;5108465;28;20054;-72
2023/04/24 09:08:28;;;;;;;2.63;1.30;;;;;;;21.20;40.15;100106.63;5116064;27;20458;-72
2023/04/24 09:10:53;;;;;;;1.40;1.13;;;;;;;21.22;40.08;100115.16;5102501;27;20087;-72
2023/04/24 09:13:22;;;;;;;1.50;1.05;;;;;;;21.13;40.49;100111.91;5114235;28;20043;-73
2023/04/24 09:15:48;;;;;;;1.58;1.23;;;;;;;21.18;40.37;100119.22;5105133;28;20084;-72
2023/04/24 09:18:13;;;;;;;2.15;1.58;;;;;;;21.21;40.25;100134.72;5105444;27;20760;-72
2023/04/24 09:21:06;;;;;;;1.73;1.30;;;;;;;21.14;40.43;100132.06;5106550;28;20466;-72
2023/04/24 09:23:32;;;;;;;1.25;1.10;;;;;;;21.22;39.97;100136.34;5114351;27;20568;-72
2023/04/24 09:26:02;;;;;;;1.63;1.20;;;;;;;21.22;39.86;100137.16;5106794;27;20089;-72
2023/04/24 09:28:34;;;;;;;1.55;1.38;;;;;;;21.20;39.98;100141.84;5108529;28;20039;-72
2023/04/24 09:31:04;;;;;;;2.60;1.60;;;;;;;21.13;40.12;100146.31;5114523;27;20043;-72
2023/04/24 09:33:29;;;;;;;1.45;1.35;;;;;;;21.17;39.88;100142.22;5110247;27;20474;-73
2023/04/24 09:35:55;;;;;;;1.98;1.58;;;;;;;21.12;40.14;100152.63;5106199;28;20031;-72
2023/04/24 09:38:34;;;;;;;2.63;1.50;;;;;;;21.12;39.87;100158.75;5104105;28;20052;-72
2023/04/24 09:41:04;;;;;;;2.67;1.50;;;;;;;21.07;40.23;100161.19;5092607;28;20028;-72
2023/04/24 09:43:31;;;;;;;2.00;1.70;;;;;;;21.10;40.11;100171.38;5108850;27;20370;-72
2023/04/24 09:45:58;;;;;;;1.90;1.50;;;;;;;21.14;39.83;100163.81;5108301;28;20066;-72
2023/04/24 09:48:35;;;;;;;2.05;1.60;;;;;;;21.10;39.87;100168.72;5104966;28;20434;-72
2023/04/24 09:51:03;;;;;;;1.88;1.70;;;;;;;21.13;40.06;100181.53;5111311;27;20070;-72
2023/04/24 09:53:29;;;;;;;2.17;1.70;;;;;;;21.12;40.10;100185.22;5113783;27;20067;-72
2023/04/24 09:55:55;;;;;;;1.95;1.60;;;;;;;21.13;39.97;100189.50;5117683;27;20113;-72
2023/04/24 09:58:29;;;;;;;2.25;1.90;;;;;;;21.07;39.76;100174.44;5104884;27;20592;-72
2023/04/24 10:00:56;;;;;;;3.90;2.25;;;;;;;21.16;39.95;100200.69;5113441;27;20058;-72
2023/04/24 10:03:26;;;;;;;2.00;1.73;;;;;;;21.09;40.00;100201.50;5111112;27;20117;-73
2023/04/24 10:05:53;;;;;;;1.88;1.55;;;;;;;21.11;39.77;100211.88;5106678;27;20215;-72
2023/04/24 10:08:19;;;;;;;2.08;1.70;;;;;;;21.13;39.88;100217.78;5110381;28;20040;-72
2023/04/24 10:10:45;;;;;;;2.58;1.73;;;;;;;21.12;39.91;100221.47;5108501;28;20054;-72
2023/04/24 10:13:13;;;;;;;2.17;1.60;;;;;;;21.15;39.90;100221.06;5103918;28;20127;-71
2023/04/24 10:15:40;;;;;;;2.22;1.70;;;;;;;21.09;40.03;100222.69;5113558;27;20061;-72
2023/04/24 10:18:08;;;;;;;2.58;1.85;;;;;;;21.16;39.73;100224.50;5110312;28;20409;-72
2023/04/24 10:20:35;;;;;;;2.10;1.90;;;;;;;21.13;39.90;100223.91;5105024;27;20051;-72
2023/04/24 10:23:01;;;;;;;4.05;2.15;;;;;;;21.11;39.73;100227.78;5107868;27;20055;-71
2023/04/24 10:25:30;;;;;;;3.03;1.90;;;;;;;21.12;39.86;100232.88;5107345;27;20039;-74
2023/04/24 10:27:58;;;;;;;2.33;1.80;;;;;;;21.08;39.86;100218.41;5101117;27;20046;-72
2023/04/24 10:30:23;;;;;;;2.33;1.88;;;;;;;21.14;39.83;100237.97;5102366;27;20047;-70
2023/04/24 10:32:49;;;;;;;1.90;1.80;;;;;;;21.14;39.87;100240.59;5101797;28;20036;-73
2023/04/24 10:35:17;;;;;;;1.67;1.58;;;;;;;21.24;39.56;100248.16;5104287;28;20039;-71
2023/04/24 10:37:54;;;;;;;2.28;2.08;;;;;;;21.13;39.78;100253.03;5102351;28;20130;-72
2023/04/24 10:40:27;;;;;;;2.20;1.83;;;;;;;21.13;39.81;100260.16;5103926;28;20381;-73
2023/04/24 10:42:53;;;;;;;2.85;2.13;;;;;;;21.23;39.48;100257.94;5104788;28;20039;-72
2023/04/24 10:45:23;;;;;;;3.42;2.10;;;;;;;21.17;39.49;100265.84;5104856;28;20095;-73
2023/04/24 10:48:02;;;;;;;2.20;2.00;;;;;;;21.17;39.56;100271.16;5104618;28;20812;-71
2023/04/24 10:50:51;;;;;;;2.13;2.00;;;;;;;21.21;39.29;100267.09;5103731;28;20039;-73
2023/04/24 10:53:18;;;;;;;2.40;2.20;;;;;;;21.14;39.38;100264.44;5107050;28;20035;-72
2023/04/24 10:55:50;;;;;;;2.50;1.98;;;;;;;21.17;39.54;100284.38;5108978;28;20044;-72
2023/04/24 10:58:21;;;;;;;2.72;2.00;;;;;;;21.17;39.47;100284.38;5111914;28;20766;-73
2023/04/24 11:00:58;;;;;;;2.20;1.90;;;;;;;21.16;39.70;100294.16;5107952;28;20037;-72
2023/04/24 11:03:28;;;;;;;2.42;1.80;;;;;;;21.22;39.50;100296.03;5105696;28;20070;-70
2023/04/24 11:06:04;;;;;;;2.40;2.00;;;;;;;21.19;39.68;100295.63;5105224;28;20126;-73
2023/04/24 11:08:42;;;;;;;4.70;2.58;;;;;;;21.20;39.33;100300.72;5105603;28;20043;-72
2023/04/24 11:11:15;;;;;;;3.03;2.15;;;;;;;21.18;39.42;100308.03;5107477;28;20031;-73
2023/04/24 11:13:56;;;;;;;2.83;2.00;;;;;;;21.20;39.64;100319.25;5102848;28;20093;-74
2023/04/24 11:16:45;;;;;;;2.67;2.00;;;;;;;21.23;39.56;100315.38;5106852;28;20095;-73
2023/04/24 11:19:14;;;;;;;2.28;1.95;;;;;;;21.16;39.57;100320.66;5104807;28;20027;-73
2023/04/24 11:22:02;;;;;;;2.10;1.88;;;;;;;21.18;39.11;100326.56;5101186;28;20036;-73
2023/04/24 11:24:37;;;;;;;2.63;2.00;;;;;;;21.16;39.57;100330.41;5102079;28;20035;-72
2023/04/24 11:27:04;;;;;;;2.03;1.80;;;;;;;21.19;39.56;100316.81;5092793;28;20035;-73
2023/04/24 11:29:47;;;;;;;2.00;1.80;;;;;;;21.16;39.33;100325.94;5104314;28;20042;-72
2023/04/24 11:32:16;;;;;;;1.95;1.85;;;;;;;21.15;39.38;100332.25;5103362;28;20051;-72
2023/04/24 11:34:45;;;;;;;1.95;1.80;;;;;;;21.12;39.60;100338.75;5106968;28;20557;-73